Time;durP1;ratioP1;P1;durP2;ratioP2;P2;SDS_P1;SDS_P2;PMS_P1;PMS_P2;Temp;Humidity;BMP_temperature;BMP_pressure;BME280_temperature;BME280_humidity;BME280_pressure;Samples;Min_cycle;Max_cycle;Signal;HPM_P1;HPM_P2
2022/08/14 00:02:17;;;;;;;17.85;14.40;;;;;;;18.12;93.77;94182.30;1692653;82;20991;-52
2022/08/14 00:04:44;;;;;;;23.27;15.50;;;;;;;18.04;93.88;94177.14;1702537;82;20954;-51
2022/08/14 00:07:12;;;;;;;16.75;12.75;;;;;;;18.01;94.43;94172.60;1719481;81;21162;-53
2022/08/14 00:09:44;;;;;;;17.30;13.18;;;;;;;17.99;94.93;94173.09;1678568;84;21077;-53
2022/08/14 00:12:12;;;;;;;20.52;13.93;;;;;;;18.03;94.86;94165.89;1703855;83;21148;-53
2022/08/14 00:14:41;;;;;;;19.40;14.75;;;;;;;18.04;94.78;94167.41;1681811;84;21054;-51
2022/08/14 00:17:08;;;;;;;19.90;14.40;;;;;;;18.02;94.75;94165.77;1698748;83;21022;-52
2022/08/14 00:19:35;;;;;;;16.17;12.43;;;;;;;18.01;94.84;94169.17;1700900;83;20958;-51
2022/08/14 00:22:04;;;;;;;17.82;14.05;;;;;;;18.00;94.76;94172.48;1698952;83;21033;-52
2022/08/14 00:24:32;;;;;;;19.27;13.68;;;;;;;17.94;95.31;94171.09;1722492;83;21525;-51
2022/08/14 00:27:00;;;;;;;19.85;13.88;;;;;;;17.94;95.44;94161.97;1720667;81;21426;-51
2022/08/14 00:29:28;;;;;;;20.40;14.15;;;;;;;17.94;95.30;94156.40;1720727;83;20989;-52
2022/08/14 00:31:56;;;;;;;15.25;12.53;;;;;;;17.91;95.21;94157.42;1667735;81;20974;-51
2022/08/14 00:34:25;;;;;;;15.55;12.43;;;;;;;17.88;95.09;94156.43;1722292;81;21025;-51
2022/08/14 00:36:53;;;;;;;17.27;12.73;;;;;;;17.86;94.90;94154.77;1723851;83;21241;-52
2022/08/14 00:39:22;;;;;;;17.48;12.53;;;;;;;17.86;94.91;94155.41;1695976;83;21020;-51
2022/08/14 00:41:50;;;;;;;16.67;12.58;;;;;;;17.84;94.86;94163.52;1704157;84;21118;-52
2022/08/14 00:44:18;;;;;;;16.05;12.98;;;;;;;17.84;95.01;94167.69;1703173;81;21258;-51
2022/08/14 00:46:48;;;;;;;20.55;14.20;;;;;;;17.82;95.09;94173.00;1697938;83;21001;-51
2022/08/14 00:49:16;;;;;;;16.30;12.47;;;;;;;17.78;94.98;94169.70;1694707;83;21224;-52
2022/08/14 00:51:44;;;;;;;16.27;12.23;;;;;;;17.74;95.09;94172.75;1700191;83;21054;-51
2022/08/14 00:54:14;;;;;;;21.75;13.88;;;;;;;17.69;95.35;94165.80;1676112;84;21010;-52
2022/08/14 00:56:43;;;;;;;17.32;13.58;;;;;;;17.63;95.63;94164.41;1698916;83;21028;-50
2022/08/14 00:59:11;;;;;;;17.40;12.98;;;;;;;17.56;95.96;94162.14;1676462;83;21470;-52
2022/08/14 01:01:39;;;;;;;18.05;12.55;;;;;;;17.50;96.58;94171.09;1702512;83;21884;-52
2022/08/14 01:04:07;;;;;;;14.38;12.15;;;;;;;17.46;97.04;94169.84;1681535;83;20993;-52
2022/08/14 01:06:36;;;;;;;19.80;12.82;;;;;;;17.42;97.66;94171.48;1724855;82;21051;-51
2022/08/14 01:09:04;;;;;;;16.23;12.73;;;;;;;17.42;97.58;94172.13;1725342;83;21518;-51
2022/08/14 01:11:32;;;;;;;15.48;13.28;;;;;;;17.41;97.37;94174.75;1699798;83;21083;-52
2022/08/14 01:14:00;;;;;;;21.77;13.70;;;;;;;17.39;97.19;94171.11;1702153;83;21135;-51
2022/08/14 01:16:30;;;;;;;20.32;12.82;;;;;;;17.32;96.89;94174.98;1691097;83;21050;-52
2022/08/14 01:21:46;;;;;;;18.42;12.75;;;;;;;17.26;97.28;94171.45;1700472;84;21002;-52
2022/08/14 01:24:16;;;;;;;19.00;13.08;;;;;;;17.27;97.44;94179.27;1697871;83;21437;-52
2022/08/14 01:26:44;;;;;;;23.62;15.15;;;;;;;17.29;96.95;94174.61;1649733;83;21236;-52
2022/08/14 01:29:13;;;;;;;20.40;13.55;;;;;;;17.27;96.18;94182.70;1696460;83;20946;-52
2022/08/14 01:31:51;;;;;;;17.82;11.97;;;;;;;17.19;95.83;94187.22;1707840;83;21054;-52
2022/08/14 01:34:22;;;;;;;15.68;12.58;;;;;;;17.11;95.96;94188.98;1690670;83;20979;-53
2022/08/14 01:36:48;;;;;;;17.57;13.30;;;;;;;17.13;96.51;94179.51;1682181;83;21632;-51
2022/08/14 01:39:17;;;;;;;21.40;14.30;;;;;;;17.15;96.37;94182.54;1721305;82;21220;-51
2022/08/14 01:41:59;;;;;;;18.15;13.10;;;;;;;17.18;96.29;94178.75;1721037;81;21043;-51
2022/08/14 01:44:28;;;;;;;18.90;13.60;;;;;;;17.21;96.54;94183.30;1726089;83;21049;-52
2022/08/14 01:46:57;;;;;;;16.95;11.97;;;;;;;17.21;96.31;94183.30;1720654;83;20998;-51
2022/08/14 01:49:25;;;;;;;19.82;14.47;;;;;;;17.22;96.44;94183.42;1720086;83;20954;-51
2022/08/14 01:51:55;;;;;;;21.23;14.38;;;;;;;17.19;96.94;94180.27;1726230;83;21132;-53
2022/08/14 01:54:23;;;;;;;18.20;13.55;;;;;;;17.19;97.67;94181.04;1725635;82;21002;-51
2022/08/14 01:56:55;;;;;;;18.77;12.68;;;;;;;17.24;97.64;94179.53;1720942;83;20986;-52
2022/08/14 01:59:30;;;;;;;20.55;12.23;;;;;;;17.28;97.27;94186.99;1721609;81;21053;-51
2022/08/14 02:01:57;;;;;;;17.50;13.30;;;;;;;17.32;96.85;94181.94;1723523;81;20958;-51
2022/08/14 02:04:31;;;;;;;19.50;14.33;;;;;;;17.32;96.89;94183.33;1723096;81;21232;-51
2022/08/14 02:06:59;;;;;;;17.92;13.48;;;;;;;17.37;97.09;94182.59;1723104;81;20953;-52
2022/08/14 02:09:29;;;;;;;17.95;12.95;;;;;;;17.42;97.17;94184.64;1721863;81;20946;-51
2022/08/14 02:11:57;;;;;;;16.95;12.28;;;;;;;17.48;96.61;94181.23;1723810;81;21081;-51
2022/08/14 02:14:24;;;;;;;18.85;13.40;;;;;;;17.50;96.27;94187.04;1720212;81;20992;-51
2022/08/14 02:16:52;;;;;;;17.00;13.78;;;;;;;17.49;96.42;94191.08;1698357;83;21496;-52
2022/08/14 02:19:25;;;;;;;17.15;14.07;;;;;;;17.47;96.81;94192.22;1703402;84;21144;-51
2022/08/14 02:21:57;;;;;;;18.95;13.38;;;;;;;17.46;96.81;94192.09;1723684;81;21021;-51
2022/08/14 02:24:28;;;;;;;21.35;14.15;;;;;;;17.42;96.45;94195.12;1701151;83;20983;-51
2022/08/14 02:26:57;;;;;;;19.87;12.85;;;;;;;17.38;96.66;94194.61;1698588;83;21006;-51
2022/08/14 02:29:26;;;;;;;14.78;12.63;;;;;;;17.42;96.86;94188.81;1697504;83;21242;-52
2022/08/14 02:31:57;;;;;;;19.40;13.68;;;;;;;17.45;96.77;94194.75;1670514;83;21541;-50
2022/08/14 02:34:28;;;;;;;17.15;13.15;;;;;;;17.45;96.76;94198.92;1700189;83;21015;-51
2022/08/14 02:36:58;;;;;;;14.50;12.63;;;;;;;17.46;96.79;94189.31;1700251;83;21446;-51
2022/08/14 02:39:26;;;;;;;18.05;12.23;;;;;;;17.45;96.44;94189.19;1699394;83;21099;-51
2022/08/14 02:41:53;;;;;;;20.92;12.73;;;;;;;17.47;96.47;94188.05;1696316;83;21175;-53
2022/08/14 02:44:22;;;;;;;18.23;13.10;;;;;;;17.49;96.34;94185.52;1699348;84;21027;-51
2022/08/14 02:46:51;;;;;;;20.70;13.80;;;;;;;17.52;96.47;94190.07;1697724;83;21473;-51
2022/08/14 02:49:26;;;;;;;16.52;12.68;;;;;;;17.49;96.86;94191.08;1698581;84;21015;-51
2022/08/14 02:51:50;;;;;;;20.05;12.98;;;;;;;17.45;97.17;94192.72;1697048;83;20952;-51
2022/08/14 02:54:18;;;;;;;20.68;13.58;;;;;;;17.40;97.48;94180.19;1697408;83;21180;-51
2022/08/14 02:56:46;;;;;;;19.87;13.95;;;;;;;17.36;97.94;94181.08;1702394;83;21458;-51
2022/08/14 02:59:13;;;;;;;23.05;12.60;;;;;;;17.34;98.64;94176.66;1702796;83;21002;-52
2022/08/14 03:01:41;;;;;;;17.98;14.13;;;;;;;17.36;98.77;94183.86;1701536;83;21586;-51
2022/08/14 03:04:10;;;;;;;17.57;14.53;;;;;;;17.37;99.24;94179.81;1706749;83;20971;-51
2022/08/14 03:06:38;;;;;;;18.07;13.72;;;;;;;17.44;99.88;94179.33;1687282;83;21140;-51
2022/08/14 03:09:09;;;;;;;27.45;13.72;;;;;;;17.54;99.82;94175.02;1677049;83;21003;-50
2022/08/14 03:11:41;;;;;;;16.50;12.82;;;;;;;17.62;99.23;94171.23;1692918;83;20986;-50
2022/08/14 03:14:10;;;;;;;22.37;15.60;;;;;;;17.68;98.62;94164.28;1705890;83;21471;-51
2022/08/14 03:16:39;;;;;;;24.18;16.15;;;;;;;17.73;98.19;94164.91;1697640;83;21353;-52
2022/08/14 03:19:07;;;;;;;21.40;16.62;;;;;;;17.75;97.77;94174.89;1703074;83;21211;-50
2022/08/14 03:21:38;;;;;;;22.90;15.35;;;;;;;17.78;97.60;94179.44;1697696;83;21071;-51
2022/08/14 03:24:10;;;;;;;21.05;15.95;;;;;;;17.81;97.61;94163.14;1697507;84;20959;-49
2022/08/14 03:26:40;;;;;;;26.48;17.65;;;;;;;17.84;97.42;94159.34;1704201;84;21018;-51
2022/08/14 03:29:07;;;;;;;26.82;18.00;;;;;;;17.86;96.82;94163.11;1676321;83;20974;-51
2022/08/14 03:31:37;;;;;;;27.30;15.98;;;;;;;17.84;96.57;94164.91;1693732;84;21230;-51
2022/08/14 03:34:04;;;;;;;18.62;14.60;;;;;;;17.84;96.69;94164.91;1720593;81;21025;-52
2022/08/14 03:36:32;;;;;;;22.05;14.10;;;;;;;17.86;96.74;94162.37;1702742;83;21033;-52
2022/08/14 03:39:00;;;;;;;19.70;15.35;;;;;;;17.87;96.37;94163.88;1702237;83;21080;-50
2022/08/14 03:41:28;;;;;;;25.20;15.83;;;;;;;17.85;96.51;94158.07;1723015;83;21490;-50
2022/08/14 03:43:58;;;;;;;22.02;15.80;;;;;;;17.85;96.70;94165.03;1719614;83;21126;-52
2022/08/14 03:46:29;;;;;;;22.30;14.95;;;;;;;17.87;96.79;94168.06;1720910;83;20938;-52
2022/08/14 03:48:56;;;;;;;23.42;15.30;;;;;;;17.89;96.60;94169.70;1721118;81;21026;-51
2022/08/14 03:51:27;;;;;;;24.20;16.95;;;;;;;17.89;96.69;94168.30;1699884;83;21558;-51
2022/08/14 03:53:54;;;;;;;25.75;17.85;;;;;;;17.93;96.79;94170.19;1701555;83;21513;-50
2022/08/14 03:56:22;;;;;;;24.35;16.80;;;;;;;17.94;96.48;94168.92;1701681;83;21277;-51
2022/08/14 03:58:52;;;;;;;23.27;16.97;;;;;;;17.97;96.64;94176.28;1702953;83;20983;-51
2022/08/14 04:01:22;;;;;;;21.57;15.48;;;;;;;18.00;96.58;94166.91;1700747;83;21025;-51
2022/08/14 04:03:50;;;;;;;22.93;15.10;;;;;;;18.07;96.79;94167.77;1652171;84;21127;-51
2022/08/14 04:06:21;;;;;;;20.68;14.60;;;;;;;18.17;96.54;94173.20;1720065;81;21073;-51
2022/08/14 04:08:49;;;;;;;22.70;15.70;;;;;;;18.19;95.61;94174.97;1706467;81;21767;-51
2022/08/14 04:11:17;;;;;;;23.25;15.88;;;;;;;18.21;95.66;94176.61;1720177;81;21556;-51
2022/08/14 04:13:45;;;;;;;24.10;16.75;;;;;;;18.22;95.53;94166.98;1725013;83;21049;-50
2022/08/14 04:16:16;;;;;;;22.85;16.77;;;;;;;18.25;95.04;94172.92;1720669;83;20973;-52
2022/08/14 04:18:46;;;;;;;28.20;18.70;;;;;;;18.26;95.20;94173.69;1725484;83;21022;-50
2022/08/14 04:21:14;;;;;;;25.40;19.32;;;;;;;18.31;94.88;94173.69;1718876;83;21150;-51
2022/08/14 04:23:42;;;;;;;23.75;17.45;;;;;;;18.31;94.73;94168.11;1718331;83;21509;-51
2022/08/14 04:26:11;;;;;;;20.82;15.45;;;;;;;18.35;94.86;94165.07;1728016;81;20958;-51
2022/08/14 04:28:40;;;;;;;21.17;15.53;;;;;;;18.38;94.78;94163.42;1722707;83;21085;-50
2022/08/14 04:31:08;;;;;;;21.25;15.80;;;;;;;18.39;95.04;94160.77;1721025;83;20960;-52
2022/08/14 04:33:36;;;;;;;20.23;15.68;;;;;;;18.43;95.04;94158.47;1722864;81;21176;-51
2022/08/14 04:36:04;;;;;;;20.68;15.30;;;;;;;18.46;94.75;94157.44;1720474;83;21498;-51
2022/08/14 04:44:05;;;;;;;23.25;16.48;;;;;;;18.48;94.53;94155.54;1695224;83;21497;-51
2022/08/14 04:46:34;;;;;;;24.80;17.07;;;;;;;18.50;94.12;94152.34;1700785;83;21319;-51
2022/08/14 04:49:03;;;;;;;20.15;16.52;;;;;;;18.51;94.26;94152.50;1696262;83;21041;-52
2022/08/14 04:51:33;;;;;;;25.55;16.10;;;;;;;18.53;94.25;94154.13;1700806;83;20965;-52
2022/08/14 04:54:01;;;;;;;27.40;16.17;;;;;;;18.55;94.35;94154.37;1700312;83;21134;-51
2022/08/14 04:56:28;;;;;;;24.00;15.83;;;;;;;18.58;94.46;94148.39;1696648;83;21495;-52
2022/08/14 04:58:59;;;;;;;28.95;17.77;;;;;;;18.61;94.50;94146.74;1714377;81;21171;-51
2022/08/14 05:01:27;;;;;;;27.02;17.00;;;;;;;18.66;94.90;94147.34;1722402;81;20986;-52
2022/08/14 05:03:56;;;;;;;26.55;17.42;;;;;;;18.76;94.78;94145.80;1720603;81;21054;-52
2022/08/14 05:06:24;;;;;;;26.60;16.07;;;;;;;18.82;94.24;94147.16;1698252;83;21124;-51
2022/08/14 05:08:52;;;;;;;23.75;16.37;;;;;;;18.85;94.25;94146.87;1705560;83;21041;-52
2022/08/14 05:11:21;;;;;;;27.30;17.30;;;;;;;18.92;94.33;94154.71;1668152;83;21271;-52
2022/08/14 05:13:49;;;;;;;25.25;18.27;;;;;;;18.98;94.31;94148.45;1697386;83;21109;-51
2022/08/14 05:16:17;;;;;;;29.05;18.42;;;;;;;19.02;93.56;94157.30;1722650;83;20966;-51
2022/08/14 05:18:45;;;;;;;28.00;17.42;;;;;;;19.02;93.45;94153.12;1721748;83;21009;-52
2022/08/14 05:21:14;;;;;;;23.47;16.40;;;;;;;19.04;93.38;94149.17;1697125;83;21563;-52
2022/08/14 05:23:42;;;;;;;23.80;16.40;;;;;;;19.10;93.60;94137.98;1695462;83;21124;-54
2022/08/14 05:26:20;;;;;;;31.70;18.35;;;;;;;19.19;93.58;94142.66;1704962;81;20998;-51
2022/08/14 05:28:44;;;;;;;24.55;17.37;;;;;;;19.25;92.77;94141.22;1699016;83;21055;-51
2022/08/14 05:31:16;;;;;;;24.10;17.17;;;;;;;19.26;92.71;94149.09;1719604;83;21013;-52
2022/08/14 05:33:44;;;;;;;21.77;16.15;;;;;;;19.24;92.79;94146.06;1720990;81;21037;-52
2022/08/14 05:36:11;;;;;;;25.05;17.25;;;;;;;19.23;93.21;94136.80;1725403;83;21828;-51
2022/08/14 05:38:43;;;;;;;27.73;18.57;;;;;;;19.30;93.68;94127.25;1720748;82;21489;-52
2022/08/14 05:41:15;;;;;;;34.27;20.43;;;;;;;19.42;93.22;94130.08;1720362;81;21616;-51
2022/08/14 05:43:46;;;;;;;29.02;18.80;;;;;;;19.49;92.20;94121.14;1701556;84;21005;-51
2022/08/14 05:46:17;;;;;;;20.92;15.80;;;;;;;19.51;91.56;94126.95;1702236;84;20954;-53
2022/08/14 05:48:53;;;;;;;24.55;16.90;;;;;;;19.54;91.39;94121.72;1707766;84;21261;-51
2022/08/14 05:51:22;;;;;;;23.25;15.88;;;;;;;19.55;90.68;94119.05;1702221;83;21572;-51
2022/08/14 05:53:50;;;;;;;26.57;16.50;;;;;;;19.55;90.49;94119.05;1722267;83;20953;-51
2022/08/14 05:56:17;;;;;;;25.57;16.32;;;;;;;19.54;90.02;94127.95;1721969;81;20986;-51
2022/08/14 05:58:46;;;;;;;22.77;15.98;;;;;;;19.53;89.63;94124.39;1649422;84;20971;-52
2022/08/14 06:01:14;;;;;;;16.10;12.65;;;;;;;19.53;89.25;94120.21;1686030;82;21242;-51
2022/08/14 06:03:41;;;;;;;20.60;14.28;;;;;;;19.57;89.21;94124.86;1703421;83;21055;-51
2022/08/14 06:06:10;;;;;;;24.95;17.12;;;;;;;19.60;88.84;94129.40;1699975;83;21482;-52
2022/08/14 06:08:38;;;;;;;25.08;16.30;;;;;;;19.67;88.97;94132.27;1696240;83;21545;-52
2022/08/14 06:11:07;;;;;;;22.98;15.50;;;;;;;19.74;88.56;94131.06;1697168;83;21065;-52
2022/08/14 06:13:38;;;;;;;24.18;15.48;;;;;;;19.79;87.91;94135.09;1705666;84;21241;-51
2022/08/14 06:16:06;;;;;;;19.73;15.25;;;;;;;19.78;87.62;94142.70;1716361;82;21099;-51
2022/08/14 06:18:34;;;;;;;23.05;15.68;;;;;;;19.77;87.77;94139.78;1690101;82;21023;-52
2022/08/14 06:21:03;;;;;;;23.62;17.12;;;;;;;19.83;87.88;94136.33;1702288;81;21088;-52
2022/08/14 06:23:31;;;;;;;21.70;15.28;;;;;;;19.94;88.19;94132.02;1720457;83;21588;-53
2022/08/14 06:25:59;;;;;;;20.30;15.60;;;;;;;20.10;88.28;94136.72;1726090;83;21267;-53
2022/08/14 06:28:28;;;;;;;23.75;15.43;;;;;;;20.21;87.88;94138.02;1701340;83;21467;-51
2022/08/14 06:30:56;;;;;;;22.95;16.37;;;;;;;20.27;87.52;94131.09;1700187;83;21435;-51
2022/08/14 06:33:24;;;;;;;23.25;17.77;;;;;;;20.34;87.01;94138.13;1688633;83;21046;-52
2022/08/14 06:35:51;;;;;;;22.22;16.52;;;;;;;20.40;86.64;94136.77;1714228;81;21058;-51
2022/08/14 06:38:21;;;;;;;25.82;16.57;;;;;;;20.46;86.27;94136.70;1724447;81;21422;-53
2022/08/14 06:40:49;;;;;;;23.20;15.88;;;;;;;20.47;85.89;94125.64;1695873;83;21386;-52
2022/08/14 06:43:18;;;;;;;26.62;16.97;;;;;;;20.49;85.21;94130.83;1722830;82;21072;-53
2022/08/14 06:45:46;;;;;;;24.72;17.62;;;;;;;20.51;85.36;94130.29;1688727;83;21061;-53
2022/08/14 06:48:22;;;;;;;20.02;16.40;;;;;;;20.58;85.28;94132.52;1719368;83;21009;-52
2022/08/14 06:50:51;;;;;;;20.95;16.02;;;;;;;20.68;85.36;94130.84;1720949;81;21252;-52
2022/08/14 06:53:19;;;;;;;23.00;17.20;;;;;;;20.75;84.72;94133.06;1721162;81;21124;-52
2022/08/14 06:55:47;;;;;;;22.60;15.90;;;;;;;20.79;84.38;94132.12;1715126;83;21001;-52
2022/08/14 06:58:16;;;;;;;17.02;14.70;;;;;;;20.91;84.14;94130.73;1696528;83;21486;-52
2022/08/14 07:05:44;;;;;;;20.23;14.65;;;;;;;21.11;83.93;94135.79;1726633;82;21568;-52
2022/08/14 07:06:01;;;;;;;20.40;13.65;;;;;;;21.44;82.62;94126.91;1699855;83;21419;-52
2022/08/14 07:08:29;;;;;;;18.12;13.95;;;;;;;21.54;82.30;94127.38;1720957;81;20997;-52
2022/08/14 07:10:59;;;;;;;17.80;13.20;;;;;;;21.64;81.34;94120.77;1717996;83;20979;-52
2022/08/14 07:13:27;;;;;;;18.15;13.60;;;;;;;21.73;80.87;94125.32;1718187;83;21431;-51
2022/08/14 07:15:56;;;;;;;16.05;12.82;;;;;;;21.82;80.69;94126.96;1687632;83;21305;-52
2022/08/14 07:18:28;;;;;;;18.90;14.70;;;;;;;21.91;80.28;94126.53;1707863;81;21077;-53
2022/08/14 07:20:57;;;;;;;15.63;13.43;;;;;;;22.00;79.52;94124.74;1674754;83;21420;-52
2022/08/14 07:23:25;;;;;;;17.60;13.32;;;;;;;22.08;79.16;94121.51;1664213;83;21137;-52
2022/08/14 07:25:56;;;;;;;16.77;12.80;;;;;;;22.19;78.67;94114.31;1702118;83;21030;-52
2022/08/14 07:28:37;;;;;;;16.35;12.43;;;;;;;22.28;78.09;94113.88;1713426;82;21290;-53
2022/08/14 07:31:09;;;;;;;21.00;13.30;;;;;;;22.36;77.46;94113.36;1722593;81;20993;-51
2022/08/14 07:33:41;;;;;;;;;;;;;;;22.44;77.12;94114.91;1726446;81;20966;-53
2022/08/14 07:36:11;;;;;;;18.43;13.53;;;;;;;22.48;76.61;94109.72;1721029;81;20443;-52
2022/08/14 07:38:39;;;;;;;16.62;12.47;;;;;;;22.50;76.18;94110.67;1745260;80;21033;-53
2022/08/14 07:41:09;;;;;;;15.58;12.20;;;;;;;22.57;75.20;94103.66;1693013;80;21907;-54
2022/08/14 07:43:36;;;;;;;15.60;11.90;;;;;;;22.65;74.67;94103.88;1748125;80;21026;-52
2022/08/14 07:46:05;;;;;;;16.65;12.73;;;;;;;22.72;74.82;94104.64;1727137;81;21001;-53
2022/08/14 07:48:39;;;;;;;21.37;13.68;;;;;;;22.81;74.82;94101.37;1752516;81;21055;-56
2022/08/14 07:51:07;;;;;;;16.00;13.65;;;;;;;22.91;74.69;94099.64;1751161;81;20946;-56
2022/08/14 07:53:36;;;;;;;21.85;13.03;;;;;;;23.03;74.45;94106.50;1731641;82;21197;-53
2022/08/14 07:56:04;;;;;;;16.80;13.22;;;;;;;23.19;74.35;94093.45;1730779;82;21015;-53
2022/08/14 07:58:32;;;;;;;15.13;12.60;;;;;;;23.34;73.77;94094.99;1726994;82;21066;-51
2022/08/14 08:01:01;;;;;;;18.95;13.28;;;;;;;23.43;72.54;94088.26;1729136;82;21010;-53
2022/08/14 08:03:29;;;;;;;20.20;13.72;;;;;;;23.58;72.92;94078.58;1729618;82;21427;-52
2022/08/14 08:05:57;;;;;;;14.47;12.03;;;;;;;23.79;72.57;94076.52;1731562;82;21487;-52
2022/08/14 08:08:26;;;;;;;14.63;12.05;;;;;;;24.01;71.79;94064.77;1727433;82;21581;-52
2022/08/14 08:10:56;;;;;;;21.30;11.83;;;;;;;24.20;69.81;94069.50;1708982;82;21071;-53
2022/08/14 08:13:25;;;;;;;16.70;12.50;;;;;;;24.33;67.65;94063.75;1678033;85;21570;-52
2022/08/14 08:15:55;;;;;;;21.15;12.70;;;;;;;24.40;66.65;94060.25;1682875;83;21517;-52
2022/08/14 08:18:23;;;;;;;20.40;16.60;;;;;;;24.43;65.90;94056.33;1749897;81;21532;-53
2022/08/14 08:20:53;;;;;;;16.20;12.13;;;;;;;24.47;64.90;94059.53;1702452;82;21046;-53
2022/08/14 08:23:23;;;;;;;15.93;11.63;;;;;;;24.45;64.81;94060.10;1728055;82;21060;-53
2022/08/14 08:25:51;;;;;;;14.78;11.10;;;;;;;24.47;65.31;94059.53;1726622;82;20979;-54
2022/08/14 08:28:25;;;;;;;15.18;10.43;;;;;;;24.57;64.51;94057.08;1725196;82;21042;-54
2022/08/14 08:30:55;;;;;;;17.60;11.68;;;;;;;24.64;63.65;94052.81;1722411;82;21503;-53
2022/08/14 08:33:25;;;;;;;14.83;10.15;;;;;;;24.75;63.19;94055.31;1725773;82;21006;-54
2022/08/14 08:35:53;;;;;;;13.32;10.85;;;;;;;24.88;62.84;94051.70;1722986;82;21072;-53
2022/08/14 08:38:24;;;;;;;16.95;10.90;;;;;;;24.93;62.10;94052.86;1722111;81;21113;-52
2022/08/14 08:40:57;;;;;;;14.78;10.53;;;;;;;24.97;62.90;94051.83;1746560;80;20990;-53
2022/08/14 08:43:30;;;;;;;15.45;10.20;;;;;;;25.06;61.41;94056.28;1754608;80;21107;-53
2022/08/14 08:46:05;;;;;;;17.15;10.32;;;;;;;25.18;60.79;94058.09;1708292;82;21054;-54
2022/08/14 08:48:52;;;;;;;18.70;12.90;;;;;;;25.26;60.06;94056.84;1726678;82;21003;-53
2022/08/14 08:51:37;;;;;;;15.65;10.90;;;;;;;25.36;59.68;94059.86;1723508;82;20971;-54
2022/08/14 08:54:14;;;;;;;13.65;10.53;;;;;;;25.50;60.24;94062.63;1718010;82;20998;-52
2022/08/14 08:56:47;;;;;;;14.45;9.93;;;;;;;25.65;60.08;94062.66;1732723;82;21230;-54
2022/08/14 08:59:29;;;;;;;17.02;9.90;;;;;;;25.76;59.33;94060.86;1754130;79;21061;-53
2022/08/14 09:02:02;;;;;;;17.32;10.75;;;;;;;25.81;59.61;94058.54;1694704;82;21405;-51
2022/08/14 09:04:37;;;;;;;15.75;10.50;;;;;;;25.83;59.60;94054.50;1752405;81;21436;-54
2022/08/14 09:07:05;;;;;;;15.20;9.58;;;;;;;25.83;59.08;94051.67;1749215;81;21014;-52
2022/08/14 09:09:49;;;;;;;16.50;10.40;;;;;;;25.88;59.16;94045.12;1749295;81;21486;-52
2022/08/14 09:12:06;;;;;;;15.13;10.75;;;;;;;25.91;58.85;94035.53;1749966;81;20990;-53
2022/08/14 09:14:35;;;;;;;16.15;11.15;;;;;;;25.93;58.62;94028.67;1728544;82;21505;-53
2022/08/14 09:17:03;;;;;;;13.05;10.30;;;;;;;25.97;58.03;94022.08;1750904;79;21477;-53
2022/08/14 09:19:32;;;;;;;16.85;10.13;;;;;;;26.05;57.29;94022.08;1751593;79;21584;-52
2022/08/14 09:22:01;;;;;;;13.70;10.25;;;;;;;26.12;56.84;94014.29;1756207;81;21132;-53
2022/08/14 09:24:32;;;;;;;12.98;9.80;;;;;;;26.19;56.49;94007.88;1750393;79;21050;-51
2022/08/14 09:27:01;;;;;;;16.65;10.00;;;;;;;26.30;57.02;94018.10;1747973;82;21442;-51
2022/08/14 09:29:30;;;;;;;14.45;9.75;;;;;;;26.45;56.95;94015.25;1749159;80;21494;-54
2022/08/14 09:31:59;;;;;;;18.15;10.18;;;;;;;26.63;56.93;94013.36;1748438;80;21430;-52
2022/08/14 09:34:44;;;;;;;13.28;9.88;;;;;;;26.80;55.47;94011.41;1725764;82;21185;-51
2022/08/14 09:37:32;;;;;;;17.12;10.78;;;;;;;26.94;55.10;94003.44;1720625;82;21525;-54
2022/08/14 09:40:27;;;;;;;15.18;10.48;;;;;;;27.10;55.84;94014.13;1720631;82;20943;-52
2022/08/14 09:43:03;;;;;;;14.18;9.50;;;;;;;27.34;55.41;94015.48;1755850;81;21033;-53
2022/08/14 09:45:47;;;;;;;13.00;8.63;;;;;;;27.53;54.14;94005.85;1730696;82;21553;-53
2022/08/14 09:48:19;;;;;;;13.38;10.25;;;;;;;27.52;53.20;94008.59;1730646;82;40037;-53
2022/08/14 09:50:52;;;;;;;13.68;8.80;;;;;;;27.34;53.16;93993.65;1752595;80;20983;-53
2022/08/14 09:53:46;;;;;;;11.65;8.13;;;;;;;27.30;53.42;93992.54;1753199;81;20946;-52
2022/08/14 09:56:14;;;;;;;14.65;9.48;;;;;;;27.41;53.46;93984.36;1716142;81;21434;-54
2022/08/14 09:58:44;;;;;;;16.35;8.90;;;;;;;27.62;52.93;93987.59;1728348;81;21058;-52
2022/08/14 10:01:16;;;;;;;13.43;8.80;;;;;;;27.79;52.88;93987.69;1718917;81;21877;-52
2022/08/14 10:03:51;;;;;;;;;;;;;;;28.05;52.79;93985.69;1733783;81;21047;-52
2022/08/14 10:06:23;;;;;;;10.70;8.70;;;;;;;28.36;52.87;93994.00;1730942;82;20156;-53
2022/08/14 10:09:01;;;;;;;12.60;9.98;;;;;;;28.71;52.65;93988.41;1748179;81;20998;-53
2022/08/14 10:11:34;;;;;;;13.65;9.38;;;;;;;28.74;51.95;93995.75;1750664;81;21028;-52
2022/08/14 10:14:17;;;;;;;13.30;9.80;;;;;;;28.48;51.92;94001.41;1750664;80;21922;-53
2022/08/14 10:16:51;;;;;;;12.23;9.55;;;;;;;28.45;52.30;94004.66;1752591;81;20990;-52
2022/08/14 10:19:18;;;;;;;14.20;8.70;;;;;;;28.35;52.19;94007.39;1752052;81;20959;-53
2022/08/14 10:22:13;;;;;;;13.90;9.98;;;;;;;28.44;53.01;94015.21;1750487;80;21832;-53
2022/08/14 10:24:40;;;;;;;14.63;8.80;;;;;;;28.51;52.28;94002.31;1748311;79;21058;-53
2022/08/14 10:27:19;;;;;;;12.65;9.65;;;;;;;28.60;51.73;94027.14;1747701;81;21118;-54
2022/08/14 10:29:53;;;;;;;12.03;9.05;;;;;;;28.43;51.82;94020.05;1753665;79;20965;-54
2022/08/14 10:32:21;;;;;;;13.90;9.30;;;;;;;28.21;52.76;94027.39;1749921;81;20969;-56
2022/08/14 10:34:50;;;;;;;12.93;8.93;;;;;;;28.01;52.22;94026.36;1728388;82;21085;-53
2022/08/14 10:37:18;;;;;;;15.20;8.95;;;;;;;27.67;52.57;94018.38;1729878;82;20962;-54
2022/08/14 10:39:59;;;;;;;12.85;8.63;;;;;;;27.59;52.56;94025.50;1731528;81;21250;-52
2022/08/14 10:42:35;;;;;;;12.95;8.80;;;;;;;27.47;53.38;94020.23;1734783;82;21434;-51
2022/08/14 10:45:04;;;;;;;14.58;9.20;;;;;;;27.49;54.28;94016.16;1735523;80;21005;-51
2022/08/14 10:47:39;;;;;;;16.35;9.08;;;;;;;27.47;53.94;94022.29;1701052;82;21140;-56
2022/08/14 10:50:08;;;;;;;12.18;8.68;;;;;;;27.33;54.06;94026.05;1744489;82;21010;-53
2022/08/14 10:52:37;;;;;;;11.43;8.05;;;;;;;27.29;54.78;94034.19;1705847;82;21724;-53
2022/08/14 10:55:12;;;;;;;10.60;7.55;;;;;;;27.38;54.02;94046.27;1730853;82;21053;-51
2022/08/14 10:57:52;;;;;;;12.82;8.60;;;;;;;27.38;53.22;94054.75;1699285;82;21002;-52
2022/08/14 11:00:27;;;;;;;11.40;8.70;;;;;;;27.28;52.80;94046.05;1746142;79;21534;-53
2022/08/14 11:03:08;;;;;;;11.43;8.08;;;;;;;27.15;53.83;94029.34;1749949;79;21025;-53
2022/08/14 11:05:44;;;;;;;10.38;7.53;;;;;;;27.08;53.24;94026.64;1725692;81;21251;-52
2022/08/14 11:08:18;;;;;;;11.97;8.48;;;;;;;26.94;53.83;94030.27;1725389;81;21052;-51
2022/08/14 11:10:56;;;;;;;14.28;8.80;;;;;;;26.89;54.42;94036.20;1725905;82;21424;-53
2022/08/14 11:13:28;;;;;;;11.53;8.13;;;;;;;26.81;54.66;94043.96;1748107;81;21058;-53
2022/08/14 11:16:03;;;;;;;13.55;8.33;;;;;;;26.72;55.52;94054.45;1752796;80;21091;-53
2022/08/14 11:18:29;;;;;;;11.75;8.90;;;;;;;26.55;55.51;94050.06;1725085;81;21138;-51
2022/08/14 11:20:59;;;;;;;15.48;9.08;;;;;;;26.30;56.84;94046.98;1726645;81;21005;-51
2022/08/14 11:23:33;;;;;;;12.45;9.83;;;;;;;26.13;58.27;94047.55;1694326;80;20965;-53
2022/08/14 11:26:01;;;;;;;12.68;9.25;;;;;;;25.96;59.09;94048.04;1748632;81;20970;-54
2022/08/14 11:28:32;;;;;;;12.35;9.23;;;;;;;25.80;59.74;94051.38;1749576;79;21459;-52
2022/08/14 11:31:02;;;;;;;13.20;9.50;;;;;;;25.64;60.17;94038.61;1749755;81;21200;-52
2022/08/14 11:33:31;;;;;;;15.08;9.25;;;;;;;25.52;60.50;94038.20;1749122;81;21702;-51
2022/08/14 11:36:01;;;;;;;14.10;10.08;;;;;;;25.44;61.08;94038.09;1747883;82;20958;-52
2022/08/14 11:38:41;;;;;;;14.95;9.85;;;;;;;25.32;61.65;94032.73;1750759;79;21067;-52
2022/08/14 11:41:09;;;;;;;14.68;9.48;;;;;;;25.19;62.51;94025.84;1694100;81;21090;-54
2022/08/14 11:43:42;;;;;;;11.40;8.55;;;;;;;25.04;63.11;94029.98;1747641;80;21921;-51
2022/08/14 11:46:12;;;;;;;16.20;10.35;;;;;;;24.90;64.00;94041.31;1727706;81;21441;-52